Hauptseite
METAR-TAF:

METAR-TAF

Flughäfen :

Flughafen Leipzig/Halle

Leipzig, Deutschland

Breite: 51-25N, Länge: 012-14E, Höhe: 144 m

Beobachtung

Neuester Wetterbericht von vor 12 Minuten, um 03:50 UTC
Wind 7 kt aus Ost/Südost
Temperatur 1°C
Luftfeuchtigkeit 93%
Luftdruck 1031 hPa
Sichtweite 10 km oder mehr
keine Wolken unter 1500 m und keine Kumulonimbus oder Gewitterwolken

METAR: EDDP 160350Z 12007KT CAVOK 01/00 Q1031 NOSIG

Zeit: 05:02 (04:02 UTC)

Prognose

Neuester Wetterbericht von vor 5 Stunden und 2 Minuten, um 23:00 UTC
Gültige Prognose vom 16 um 00 UTC bis 16 um 24 UTC
Wind 7 kt aus Ost
Sichtweite: 8000 m
Wahrscheinlichkeit 30% :
Zeitweise
vom 16 um 04 UTC bis 16 um 08 UTC
Sichtweite: 3000 m
feuchter Dunst

TAF: EDDP 152300Z 1600/1624 10007KT 8000 NSC PROB30 TEMPO 1604/1608 3000 BR

Wetterbeobachtungen und Prognosen von mehr als 4000 Flughäfen (METAR und TAF Bericht).

Die verfügbaren Stationen werden durch gelbe und rote Markierungen auf der Karte dargestellt.

Führen Sie die Maus auf sie, um den Namen der Station zu sehen.

Darauf klicken, um die Beobachtung von Wetterbeobachtungen und Prognosen zu sehen.

Um die Karte zu ändern : klicken Sie auf den grünen Tasten mit einem schwarzen Kreuz Zum Vergrößern, auf den grünen Button mit einem Gedankenstrich zu verkleinern, oder auf die grünen Pfeile für benachbarte Karten.


METAR-TAF: